sensor_id;sensor_type;location;lat;lon;timestamp;P1;durP1;ratioP1;P2;durP2;ratioP2
12567;SDS011;6349;50.904;6.136;2023-02-13T00:01:39;11.53;;;9.07;;
12567;SDS011;6349;50.904;6.136;2023-02-13T00:03:41;12.37;;;8.87;;
12567;SDS011;6349;50.904;6.136;2023-02-13T00:05:42;10.37;;;8.37;;
12567;SDS011;6349;50.904;6.136;2023-02-13T00:07:43;11.60;;;9.33;;
12567;SDS011;6349;50.904;6.136;2023-02-13T00:09:44;12.50;;;9.20;;
12567;SDS011;6349;50.904;6.136;2023-02-13T00:11:45;13.40;;;8.80;;
12567;SDS011;6349;50.904;6.136;2023-02-13T00:13:46;12.00;;;8.60;;
12567;SDS011;6349;50.904;6.136;2023-02-13T00:15:53;13.43;;;8.50;;
12567;SDS011;6349;50.904;6.136;2023-02-13T00:18:00;11.40;;;8.83;;
12567;SDS011;6349;50.904;6.136;2023-02-13T00:20:03;11.30;;;9.13;;
12567;SDS011;6349;50.904;6.136;2023-02-13T00:22:04;10.33;;;8.27;;
12567;SDS011;6349;50.904;6.136;2023-02-13T00:24:05;12.53;;;8.63;;
12567;SDS011;6349;50.904;6.136;2023-02-13T00:26:06;10.57;;;8.13;;
12567;SDS011;6349;50.904;6.136;2023-02-13T00:28:09;12.27;;;8.83;;
12567;SDS011;6349;50.904;6.136;2023-02-13T00:30:10;10.27;;;8.83;;
12567;SDS011;6349;50.904;6.136;2023-02-13T00:32:11;12.67;;;9.13;;
12567;SDS011;6349;50.904;6.136;2023-02-13T00:34:11;12.10;;;9.23;;
12567;SDS011;6349;50.904;6.136;2023-02-13T00:36:15;12.13;;;9.50;;
12567;SDS011;6349;50.904;6.136;2023-02-13T00:38:18;11.77;;;8.93;;
12567;SDS011;6349;50.904;6.136;2023-02-13T00:40:19;12.97;;;9.03;;
12567;SDS011;6349;50.904;6.136;2023-02-13T00:42:21;11.50;;;8.90;;
12567;SDS011;6349;50.904;6.136;2023-02-13T00:44:25;12.57;;;8.97;;
12567;SDS011;6349;50.904;6.136;2023-02-13T00:46:26;12.40;;;8.47;;
12567;SDS011;6349;50.904;6.136;2023-02-13T00:48:27;11.30;;;8.80;;
12567;SDS011;6349;50.904;6.136;2023-02-13T00:50:31;11.70;;;9.30;;
12567;SDS011;6349;50.904;6.136;2023-02-13T00:52:31;11.37;;;8.57;;
12567;SDS011;6349;50.904;6.136;2023-02-13T00:54:32;12.80;;;9.73;;
12567;SDS011;6349;50.904;6.136;2023-02-13T00:56:34;11.70;;;9.27;;
12567;SDS011;6349;50.904;6.136;2023-02-13T00:58:36;11.07;;;8.87;;
12567;SDS011;6349;50.904;6.136;2023-02-13T01:00:37;11.97;;;9.00;;
12567;SDS011;6349;50.904;6.136;2023-02-13T01:02:37;10.37;;;8.70;;
12567;SDS011;6349;50.904;6.136;2023-02-13T01:04:39;10.53;;;8.53;;
12567;SDS011;6349;50.904;6.136;2023-02-13T01:06:40;12.47;;;9.50;;
12567;SDS011;6349;50.904;6.136;2023-02-13T01:08:41;11.97;;;9.50;;
12567;SDS011;6349;50.904;6.136;2023-02-13T01:10:43;12.30;;;9.03;;
12567;SDS011;6349;50.904;6.136;2023-02-13T01:12:45;12.73;;;9.13;;
12567;SDS011;6349;50.904;6.136;2023-02-13T01:14:46;11.90;;;9.60;;
12567;SDS011;6349;50.904;6.136;2023-02-13T01:16:46;12.37;;;9.13;;
12567;SDS011;6349;50.904;6.136;2023-02-13T01:18:47;11.23;;;8.73;;
12567;SDS011;6349;50.904;6.136;2023-02-13T01:20:58;11.30;;;8.97;;
12567;SDS011;6349;50.904;6.136;2023-02-13T01:23:01;10.93;;;9.10;;
12567;SDS011;6349;50.904;6.136;2023-02-13T01:25:02;10.50;;;8.63;;
12567;SDS011;6349;50.904;6.136;2023-02-13T01:27:05;10.83;;;8.50;;
12567;SDS011;6349;50.904;6.136;2023-02-13T01:29:08;11.10;;;9.30;;
12567;SDS011;6349;50.904;6.136;2023-02-13T01:31:11;12.37;;;9.10;;
12567;SDS011;6349;50.904;6.136;2023-02-13T01:33:13;10.43;;;8.60;;
12567;SDS011;6349;50.904;6.136;2023-02-13T01:35:15;11.73;;;9.47;;
12567;SDS011;6349;50.904;6.136;2023-02-13T01:37:16;11.70;;;9.23;;
12567;SDS011;6349;50.904;6.136;2023-02-13T01:39:18;10.80;;;8.20;;
12567;SDS011;6349;50.904;6.136;2023-02-13T01:41:20;10.07;;;7.83;;
12567;SDS011;6349;50.904;6.136;2023-02-13T01:43:23;10.23;;;8.37;;
12567;SDS011;6349;50.904;6.136;2023-02-13T01:45:43;9.87;;;8.23;;
12567;SDS011;6349;50.904;6.136;2023-02-13T01:47:49;9.80;;;7.90;;
12567;SDS011;6349;50.904;6.136;2023-02-13T01:50:05;10.83;;;8.50;;
12567;SDS011;6349;50.904;6.136;2023-02-13T01:52:13;10.63;;;8.80;;
12567;SDS011;6349;50.904;6.136;2023-02-13T01:54:17;9.90;;;8.07;;
12567;SDS011;6349;50.904;6.136;2023-02-13T01:56:24;10.60;;;8.60;;
12567;SDS011;6349;50.904;6.136;2023-02-13T01:58:45;10.57;;;8.10;;
12567;SDS011;6349;50.904;6.136;2023-02-13T02:00:50;10.03;;;8.30;;
12567;SDS011;6349;50.904;6.136;2023-02-13T02:02:52;10.90;;;8.53;;
12567;SDS011;6349;50.904;6.136;2023-02-13T02:05:00;11.67;;;8.37;;
12567;SDS011;6349;50.904;6.136;2023-02-13T02:07:04;10.30;;;8.30;;
12567;SDS011;6349;50.904;6.136;2023-02-13T02:09:10;10.27;;;7.63;;
12567;SDS011;6349;50.904;6.136;2023-02-13T02:11:17;11.50;;;7.93;;
12567;SDS011;6349;50.904;6.136;2023-02-13T02:13:27;9.27;;;7.43;;
12567;SDS011;6349;50.904;6.136;2023-02-13T02:15:27;10.17;;;7.80;;
12567;SDS011;6349;50.904;6.136;2023-02-13T02:17:29;9.40;;;7.67;;
12567;SDS011;6349;50.904;6.136;2023-02-13T02:19:34;9.00;;;7.77;;
12567;SDS011;6349;50.904;6.136;2023-02-13T02:21:50;9.00;;;7.20;;
12567;SDS011;6349;50.904;6.136;2023-02-13T02:24:13;9.63;;;7.80;;
12567;SDS011;6349;50.904;6.136;2023-02-13T02:29:12;9.57;;;7.37;;
12567;SDS011;6349;50.904;6.136;2023-02-13T02:34:22;9.97;;;6.87;;
12567;SDS011;6349;50.904;6.136;2023-02-13T02:36:56;9.67;;;7.57;;
12567;SDS011;6349;50.904;6.136;2023-02-13T02:39:22;9.03;;;7.47;;
12567;SDS011;6349;50.904;6.136;2023-02-13T02:41:38;8.83;;;6.80;;
12567;SDS011;6349;50.904;6.136;2023-02-13T02:43:54;9.63;;;7.60;;
12567;SDS011;6349;50.904;6.136;2023-02-13T02:46:08;9.47;;;7.47;;
12567;SDS011;6349;50.904;6.136;2023-02-13T02:53:37;9.40;;;7.57;;
12567;SDS011;6349;50.904;6.136;2023-02-13T02:56:01;9.03;;;7.60;;
12567;SDS011;6349;50.904;6.136;2023-02-13T02:58:24;10.00;;;8.00;;
12567;SDS011;6349;50.904;6.136;2023-02-13T03:00:52;8.97;;;7.20;;
12567;SDS011;6349;50.904;6.136;2023-02-13T03:03:18;9.13;;;7.53;;
12567;SDS011;6349;50.904;6.136;2023-02-13T03:05:42;9.93;;;7.17;;
12567;SDS011;6349;50.904;6.136;2023-02-13T03:08:06;8.30;;;6.83;;
12567;SDS011;6349;50.904;6.136;2023-02-13T03:10:08;10.40;;;7.60;;
12567;SDS011;6349;50.904;6.136;2023-02-13T03:12:35;8.20;;;6.90;;
12567;SDS011;6349;50.904;6.136;2023-02-13T03:15:03;8.70;;;6.93;;
12567;SDS011;6349;50.904;6.136;2023-02-13T03:17:04;8.00;;;6.80;;
12567;SDS011;6349;50.904;6.136;2023-02-13T03:22:35;8.60;;;6.80;;
12567;SDS011;6349;50.904;6.136;2023-02-13T03:25:16;8.70;;;6.63;;
12567;SDS011;6349;50.904;6.136;2023-02-13T03:30:37;9.07;;;7.00;;
12567;SDS011;6349;50.904;6.136;2023-02-13T03:33:07;8.83;;;7.50;;
12567;SDS011;6349;50.904;6.136;2023-02-13T03:38:42;9.37;;;7.33;;
12567;SDS011;6349;50.904;6.136;2023-02-13T03:40:46;10.37;;;7.93;;
12567;SDS011;6349;50.904;6.136;2023-02-13T03:43:12;9.37;;;7.90;;
12567;SDS011;6349;50.904;6.136;2023-02-13T03:45:25;9.83;;;7.43;;
12567;SDS011;6349;50.904;6.136;2023-02-13T03:47:55;11.00;;;7.93;;
12567;SDS011;6349;50.904;6.136;2023-02-13T03:50:22;10.20;;;8.13;;
12567;SDS011;6349;50.904;6.136;2023-02-13T03:52:29;10.67;;;8.17;;
12567;SDS011;6349;50.904;6.136;2023-02-13T03:54:41;11.37;;;8.37;;
12567;SDS011;6349;50.904;6.136;2023-02-13T03:57:07;10.80;;;8.23;;
12567;SDS011;6349;50.904;6.136;2023-02-13T03:59:29;10.60;;;8.03;;
12567;SDS011;6349;50.904;6.136;2023-02-13T04:01:34;10.43;;;8.43;;
12567;SDS011;6349;50.904;6.136;2023-02-13T04:03:42;10.17;;;8.27;;
12567;SDS011;6349;50.904;6.136;2023-02-13T04:05:51;10.77;;;7.67;;
12567;SDS011;6349;50.904;6.136;2023-02-13T04:08:13;9.30;;;7.23;;
12567;SDS011;6349;50.904;6.136;2023-02-13T04:10:14;10.03;;;7.63;;
12567;SDS011;6349;50.904;6.136;2023-02-13T04:12:18;10.67;;;7.93;;
12567;SDS011;6349;50.904;6.136;2023-02-13T04:14:27;9.00;;;7.83;;
12567;SDS011;6349;50.904;6.136;2023-02-13T04:16:40;10.20;;;7.97;;
12567;SDS011;6349;50.904;6.136;2023-02-13T04:18:47;9.23;;;7.43;;
12567;SDS011;6349;50.904;6.136;2023-02-13T04:20:49;9.97;;;7.37;;
12567;SDS011;6349;50.904;6.136;2023-02-13T04:22:49;8.83;;;7.50;;
12567;SDS011;6349;50.904;6.136;2023-02-13T04:24:50;9.70;;;7.80;;
12567;SDS011;6349;50.904;6.136;2023-02-13T04:26:52;9.83;;;7.70;;
12567;SDS011;6349;50.904;6.136;2023-02-13T04:28:55;8.17;;;6.80;;
12567;SDS011;6349;50.904;6.136;2023-02-13T04:30:55;8.33;;;7.10;;
12567;SDS011;6349;50.904;6.136;2023-02-13T04:32:56;9.00;;;7.07;;
12567;SDS011;6349;50.904;6.136;2023-02-13T04:34:58;8.77;;;7.37;;
12567;SDS011;6349;50.904;6.136;2023-02-13T04:37:01;9.40;;;7.10;;
12567;SDS011;6349;50.904;6.136;2023-02-13T04:39:02;9.43;;;7.37;;
12567;SDS011;6349;50.904;6.136;2023-02-13T04:41:03;9.03;;;7.53;;
12567;SDS011;6349;50.904;6.136;2023-02-13T04:43:05;9.03;;;7.17;;
12567;SDS011;6349;50.904;6.136;2023-02-13T04:45:05;9.17;;;7.20;;
12567;SDS011;6349;50.904;6.136;2023-02-13T04:47:06;8.77;;;7.00;;
12567;SDS011;6349;50.904;6.136;2023-02-13T04:49:08;9.27;;;7.17;;
12567;SDS011;6349;50.904;6.136;2023-02-13T04:51:09;10.07;;;7.20;;
12567;SDS011;6349;50.904;6.136;2023-02-13T04:53:10;7.77;;;6.60;;
12567;SDS011;6349;50.904;6.136;2023-02-13T04:55:11;7.07;;;6.13;;
12567;SDS011;6349;50.904;6.136;2023-02-13T04:57:13;7.50;;;6.30;;
12567;SDS011;6349;50.904;6.136;2023-02-13T04:59:14;7.00;;;6.10;;
12567;SDS011;6349;50.904;6.136;2023-02-13T05:01:15;7.90;;;6.43;;
12567;SDS011;6349;50.904;6.136;2023-02-13T05:03:16;6.60;;;5.50;;
12567;SDS011;6349;50.904;6.136;2023-02-13T05:05:18;7.73;;;6.33;;
12567;SDS011;6349;50.904;6.136;2023-02-13T05:07:20;6.53;;;5.77;;
12567;SDS011;6349;50.904;6.136;2023-02-13T05:09:20;7.27;;;5.97;;
12567;SDS011;6349;50.904;6.136;2023-02-13T05:11:21;8.47;;;6.60;;
12567;SDS011;6349;50.904;6.136;2023-02-13T05:13:23;7.70;;;6.30;;
12567;SDS011;6349;50.904;6.136;2023-02-13T05:15:23;8.37;;;6.87;;
12567;SDS011;6349;50.904;6.136;2023-02-13T05:17:27;8.17;;;6.50;;
12567;SDS011;6349;50.904;6.136;2023-02-13T05:19:29;8.23;;;6.83;;
12567;SDS011;6349;50.904;6.136;2023-02-13T05:21:29;8.20;;;6.97;;
12567;SDS011;6349;50.904;6.136;2023-02-13T05:23:50;8.17;;;6.13;;
12567;SDS011;6349;50.904;6.136;2023-02-13T05:25:51;9.17;;;6.77;;
12567;SDS011;6349;50.904;6.136;2023-02-13T05:27:52;8.93;;;7.00;;
12567;SDS011;6349;50.904;6.136;2023-02-13T05:29:52;8.47;;;6.53;;
12567;SDS011;6349;50.904;6.136;2023-02-13T05:31:54;8.33;;;6.93;;
12567;SDS011;6349;50.904;6.136;2023-02-13T05:33:56;10.77;;;7.80;;
12567;SDS011;6349;50.904;6.136;2023-02-13T05:35:56;7.80;;;6.73;;
12567;SDS011;6349;50.904;6.136;2023-02-13T05:37:57;10.17;;;7.43;;
12567;SDS011;6349;50.904;6.136;2023-02-13T05:39:58;9.00;;;7.30;;
12567;SDS011;6349;50.904;6.136;2023-02-13T05:42:00;8.40;;;6.90;;
12567;SDS011;6349;50.904;6.136;2023-02-13T05:44:03;9.07;;;7.43;;
12567;SDS011;6349;50.904;6.136;2023-02-13T05:46:05;9.33;;;7.20;;
12567;SDS011;6349;50.904;6.136;2023-02-13T05:48:09;9.37;;;7.30;;
12567;SDS011;6349;50.904;6.136;2023-02-13T05:50:11;8.10;;;6.60;;
12567;SDS011;6349;50.904;6.136;2023-02-13T05:52:12;8.03;;;7.03;;
12567;SDS011;6349;50.904;6.136;2023-02-13T05:54:14;8.97;;;7.03;;
12567;SDS011;6349;50.904;6.136;2023-02-13T05:56:16;8.97;;;7.20;;
12567;SDS011;6349;50.904;6.136;2023-02-13T05:58:17;9.47;;;7.10;;
12567;SDS011;6349;50.904;6.136;2023-02-13T06:00:20;8.30;;;6.90;;
12567;SDS011;6349;50.904;6.136;2023-02-13T06:02:21;8.70;;;6.83;;
12567;SDS011;6349;50.904;6.136;2023-02-13T06:04:22;8.53;;;7.00;;
12567;SDS011;6349;50.904;6.136;2023-02-13T06:06:22;8.20;;;6.90;;
12567;SDS011;6349;50.904;6.136;2023-02-13T06:08:24;9.27;;;7.07;;
12567;SDS011;6349;50.904;6.136;2023-02-13T06:10:25;10.60;;;7.17;;
12567;SDS011;6349;50.904;6.136;2023-02-13T06:12:27;8.27;;;6.77;;
12567;SDS011;6349;50.904;6.136;2023-02-13T06:14:29;8.93;;;6.80;;
12567;SDS011;6349;50.904;6.136;2023-02-13T06:16:30;10.03;;;7.07;;
12567;SDS011;6349;50.904;6.136;2023-02-13T06:18:31;8.33;;;6.57;;
12567;SDS011;6349;50.904;6.136;2023-02-13T06:20:34;8.47;;;6.87;;
12567;SDS011;6349;50.904;6.136;2023-02-13T06:22:37;10.13;;;7.00;;
12567;SDS011;6349;50.904;6.136;2023-02-13T06:24:37;9.00;;;7.17;;
12567;SDS011;6349;50.904;6.136;2023-02-13T06:26:39;8.90;;;6.90;;
12567;SDS011;6349;50.904;6.136;2023-02-13T06:28:40;9.47;;;7.50;;
12567;SDS011;6349;50.904;6.136;2023-02-13T06:30:40;9.00;;;7.23;;
12567;SDS011;6349;50.904;6.136;2023-02-13T06:32:42;8.60;;;6.60;;
12567;SDS011;6349;50.904;6.136;2023-02-13T06:34:45;8.57;;;6.97;;
12567;SDS011;6349;50.904;6.136;2023-02-13T06:36:46;9.73;;;6.87;;
12567;SDS011;6349;50.904;6.136;2023-02-13T06:38:48;7.53;;;6.40;;
12567;SDS011;6349;50.904;6.136;2023-02-13T06:40:49;8.23;;;6.80;;
12567;SDS011;6349;50.904;6.136;2023-02-13T06:42:51;7.10;;;6.20;;
12567;SDS011;6349;50.904;6.136;2023-02-13T06:44:53;7.80;;;6.27;;
12567;SDS011;6349;50.904;6.136;2023-02-13T06:46:54;7.47;;;6.30;;
12567;SDS011;6349;50.904;6.136;2023-02-13T06:48:55;8.57;;;6.90;;
12567;SDS011;6349;50.904;6.136;2023-02-13T06:50:57;7.93;;;6.47;;
12567;SDS011;6349;50.904;6.136;2023-02-13T06:52:58;8.73;;;6.87;;
12567;SDS011;6349;50.904;6.136;2023-02-13T06:54:59;7.80;;;6.03;;
12567;SDS011;6349;50.904;6.136;2023-02-13T06:57:01;7.73;;;6.20;;
12567;SDS011;6349;50.904;6.136;2023-02-13T06:59:02;7.80;;;5.93;;
12567;SDS011;6349;50.904;6.136;2023-02-13T07:01:03;7.57;;;6.23;;
12567;SDS011;6349;50.904;6.136;2023-02-13T07:03:04;7.00;;;5.80;;
12567;SDS011;6349;50.904;6.136;2023-02-13T07:05:07;7.93;;;6.30;;
12567;SDS011;6349;50.904;6.136;2023-02-13T07:07:08;7.73;;;6.17;;
12567;SDS011;6349;50.904;6.136;2023-02-13T07:09:09;8.90;;;6.20;;
12567;SDS011;6349;50.904;6.136;2023-02-13T07:11:19;6.57;;;5.63;;
12567;SDS011;6349;50.904;6.136;2023-02-13T07:13:23;8.20;;;6.50;;
12567;SDS011;6349;50.904;6.136;2023-02-13T07:15:24;8.40;;;6.20;;
12567;SDS011;6349;50.904;6.136;2023-02-13T07:17:25;8.17;;;6.90;;
12567;SDS011;6349;50.904;6.136;2023-02-13T07:19:25;7.57;;;6.10;;
12567;SDS011;6349;50.904;6.136;2023-02-13T07:21:26;7.17;;;5.83;;
12567;SDS011;6349;50.904;6.136;2023-02-13T07:23:27;6.90;;;5.90;;
12567;SDS011;6349;50.904;6.136;2023-02-13T07:25:29;8.80;;;6.20;;
12567;SDS011;6349;50.904;6.136;2023-02-13T07:27:31;7.70;;;6.20;;
12567;SDS011;6349;50.904;6.136;2023-02-13T07:29:33;8.43;;;6.40;;
12567;SDS011;6349;50.904;6.136;2023-02-13T07:31:33;9.47;;;7.00;;
12567;SDS011;6349;50.904;6.136;2023-02-13T07:33:35;9.17;;;6.77;;
12567;SDS011;6349;50.904;6.136;2023-02-13T07:35:36;9.93;;;6.53;;
12567;SDS011;6349;50.904;6.136;2023-02-13T07:37:37;9.10;;;6.33;;
12567;SDS011;6349;50.904;6.136;2023-02-13T07:39:38;8.83;;;6.93;;
12567;SDS011;6349;50.904;6.136;2023-02-13T07:41:39;8.13;;;6.40;;
12567;SDS011;6349;50.904;6.136;2023-02-13T07:43:39;9.40;;;6.73;;
12567;SDS011;6349;50.904;6.136;2023-02-13T07:45:40;7.97;;;6.90;;
12567;SDS011;6349;50.904;6.136;2023-02-13T07:47:41;8.87;;;7.20;;
12567;SDS011;6349;50.904;6.136;2023-02-13T07:49:41;8.23;;;6.93;;
12567;SDS011;6349;50.904;6.136;2023-02-13T07:51:43;8.23;;;6.53;;
12567;SDS011;6349;50.904;6.136;2023-02-13T07:53:44;9.70;;;6.60;;
12567;SDS011;6349;50.904;6.136;2023-02-13T07:55:44;9.20;;;7.30;;
12567;SDS011;6349;50.904;6.136;2023-02-13T07:57:46;9.40;;;6.73;;
12567;SDS011;6349;50.904;6.136;2023-02-13T07:59:47;7.77;;;6.37;;
12567;SDS011;6349;50.904;6.136;2023-02-13T08:01:49;8.70;;;6.80;;
12567;SDS011;6349;50.904;6.136;2023-02-13T08:03:51;8.80;;;7.00;;
12567;SDS011;6349;50.904;6.136;2023-02-13T08:05:52;9.43;;;6.87;;
12567;SDS011;6349;50.904;6.136;2023-02-13T08:07:54;8.30;;;7.17;;
12567;SDS011;6349;50.904;6.136;2023-02-13T08:09:55;8.37;;;6.43;;
12567;SDS011;6349;50.904;6.136;2023-02-13T08:12:17;8.20;;;6.80;;
12567;SDS011;6349;50.904;6.136;2023-02-13T08:14:19;9.33;;;6.83;;
12567;SDS011;6349;50.904;6.136;2023-02-13T08:16:20;9.93;;;6.83;;
12567;SDS011;6349;50.904;6.136;2023-02-13T08:18:21;10.13;;;7.97;;
12567;SDS011;6349;50.904;6.136;2023-02-13T08:20:23;8.40;;;7.07;;
12567;SDS011;6349;50.904;6.136;2023-02-13T08:22:23;8.87;;;7.13;;
12567;SDS011;6349;50.904;6.136;2023-02-13T08:24:24;9.07;;;7.57;;
12567;SDS011;6349;50.904;6.136;2023-02-13T08:26:24;9.57;;;7.37;;
12567;SDS011;6349;50.904;6.136;2023-02-13T08:28:26;9.53;;;7.70;;
12567;SDS011;6349;50.904;6.136;2023-02-13T08:30:28;9.40;;;7.53;;
12567;SDS011;6349;50.904;6.136;2023-02-13T08:32:29;8.50;;;6.80;;
12567;SDS011;6349;50.904;6.136;2023-02-13T08:34:30;11.60;;;7.63;;
12567;SDS011;6349;50.904;6.136;2023-02-13T08:36:30;11.60;;;8.10;;
12567;SDS011;6349;50.904;6.136;2023-02-13T08:38:31;8.23;;;7.37;;
12567;SDS011;6349;50.904;6.136;2023-02-13T08:40:33;10.23;;;7.73;;
12567;SDS011;6349;50.904;6.136;2023-02-13T08:42:35;9.97;;;7.83;;
12567;SDS011;6349;50.904;6.136;2023-02-13T08:44:36;10.07;;;7.80;;
12567;SDS011;6349;50.904;6.136;2023-02-13T08:46:39;11.63;;;8.33;;
12567;SDS011;6349;50.904;6.136;2023-02-13T08:48:40;11.20;;;8.50;;
12567;SDS011;6349;50.904;6.136;2023-02-13T08:50:42;10.40;;;8.23;;
12567;SDS011;6349;50.904;6.136;2023-02-13T08:52:44;10.10;;;7.90;;
12567;SDS011;6349;50.904;6.136;2023-02-13T08:54:45;9.47;;;7.47;;
12567;SDS011;6349;50.904;6.136;2023-02-13T08:56:46;10.37;;;8.40;;
12567;SDS011;6349;50.904;6.136;2023-02-13T08:58:47;9.73;;;7.90;;
12567;SDS011;6349;50.904;6.136;2023-02-13T09:00:49;10.53;;;8.60;;
12567;SDS011;6349;50.904;6.136;2023-02-13T09:02:49;10.50;;;8.33;;
12567;SDS011;6349;50.904;6.136;2023-02-13T09:04:50;11.40;;;8.83;;
12567;SDS011;6349;50.904;6.136;2023-02-13T09:06:51;10.20;;;8.17;;
12567;SDS011;6349;50.904;6.136;2023-02-13T09:08:52;11.47;;;8.53;;
12567;SDS011;6349;50.904;6.136;2023-02-13T09:10:55;10.90;;;8.77;;
12567;SDS011;6349;50.904;6.136;2023-02-13T09:12:57;10.60;;;8.47;;
12567;SDS011;6349;50.904;6.136;2023-02-13T09:14:58;9.13;;;7.40;;
12567;SDS011;6349;50.904;6.136;2023-02-13T09:16:59;10.70;;;8.50;;
12567;SDS011;6349;50.904;6.136;2023-02-13T09:19:00;9.90;;;8.00;;
12567;SDS011;6349;50.904;6.136;2023-02-13T09:21:02;10.17;;;8.23;;
12567;SDS011;6349;50.904;6.136;2023-02-13T09:23:05;10.80;;;8.17;;
12567;SDS011;6349;50.904;6.136;2023-02-13T09:25:06;10.40;;;8.47;;
12567;SDS011;6349;50.904;6.136;2023-02-13T09:27:08;9.77;;;8.00;;
12567;SDS011;6349;50.904;6.136;2023-02-13T09:29:09;10.57;;;8.40;;
12567;SDS011;6349;50.904;6.136;2023-02-13T09:31:11;14.63;;;12.07;;
12567;SDS011;6349;50.904;6.136;2023-02-13T09:33:14;9.60;;;8.43;;
12567;SDS011;6349;50.904;6.136;2023-02-13T09:35:16;9.17;;;8.10;;
12567;SDS011;6349;50.904;6.136;2023-02-13T09:37:17;10.00;;;8.10;;
12567;SDS011;6349;50.904;6.136;2023-02-13T09:39:18;9.93;;;8.17;;
12567;SDS011;6349;50.904;6.136;2023-02-13T09:41:22;10.13;;;8.60;;
12567;SDS011;6349;50.904;6.136;2023-02-13T09:43:45;10.37;;;8.30;;
12567;SDS011;6349;50.904;6.136;2023-02-13T09:45:52;9.77;;;8.17;;
12567;SDS011;6349;50.904;6.136;2023-02-13T09:47:57;9.97;;;8.03;;
12567;SDS011;6349;50.904;6.136;2023-02-13T09:49:59;10.53;;;7.93;;
12567;SDS011;6349;50.904;6.136;2023-02-13T09:52:06;8.93;;;7.80;;
12567;SDS011;6349;50.904;6.136;2023-02-13T09:54:12;10.07;;;8.10;;
12567;SDS011;6349;50.904;6.136;2023-02-13T09:56:50;9.80;;;7.93;;
12567;SDS011;6349;50.904;6.136;2023-02-13T09:58:53;10.63;;;8.10;;
12567;SDS011;6349;50.904;6.136;2023-02-13T10:01:00;8.93;;;8.03;;
12567;SDS011;6349;50.904;6.136;2023-02-13T10:03:20;8.63;;;7.60;;
12567;SDS011;6349;50.904;6.136;2023-02-13T10:10:36;9.27;;;7.60;;
12567;SDS011;6349;50.904;6.136;2023-02-13T10:12:59;8.93;;;7.20;;
12567;SDS011;6349;50.904;6.136;2023-02-13T10:15:27;8.37;;;7.43;;
12567;SDS011;6349;50.904;6.136;2023-02-13T10:17:39;8.33;;;7.43;;
12567;SDS011;6349;50.904;6.136;2023-02-13T10:19:45;8.53;;;6.97;;
12567;SDS011;6349;50.904;6.136;2023-02-13T10:21:51;8.93;;;7.60;;
12567;SDS011;6349;50.904;6.136;2023-02-13T10:23:58;11.27;;;7.90;;
12567;SDS011;6349;50.904;6.136;2023-02-13T10:26:06;10.17;;;7.87;;
12567;SDS011;6349;50.904;6.136;2023-02-13T10:28:25;9.10;;;7.70;;
12567;SDS011;6349;50.904;6.136;2023-02-13T10:30:42;8.70;;;7.80;;
12567;SDS011;6349;50.904;6.136;2023-02-13T10:32:54;9.83;;;7.67;;
12567;SDS011;6349;50.904;6.136;2023-02-13T10:35:22;10.20;;;7.73;;
12567;SDS011;6349;50.904;6.136;2023-02-13T10:37:29;11.90;;;8.40;;
12567;SDS011;6349;50.904;6.136;2023-02-13T10:39:31;9.03;;;7.60;;
12567;SDS011;6349;50.904;6.136;2023-02-13T10:41:43;10.43;;;7.73;;
12567;SDS011;6349;50.904;6.136;2023-02-13T10:46:16;9.10;;;7.47;;
12567;SDS011;6349;50.904;6.136;2023-02-13T10:48:31;10.10;;;8.37;;
12567;SDS011;6349;50.904;6.136;2023-02-13T10:51:03;10.33;;;8.17;;
12567;SDS011;6349;50.904;6.136;2023-02-13T10:53:33;8.60;;;7.60;;
12567;SDS011;6349;50.904;6.136;2023-02-13T10:58:32;10.70;;;8.10;;
12567;SDS011;6349;50.904;6.136;2023-02-13T11:03:18;10.53;;;8.17;;
12567;SDS011;6349;50.904;6.136;2023-02-13T11:05:23;8.30;;;7.37;;
12567;SDS011;6349;50.904;6.136;2023-02-13T11:07:30;10.17;;;7.83;;
12567;SDS011;6349;50.904;6.136;2023-02-13T11:09:33;9.57;;;7.73;;
12567;SDS011;6349;50.904;6.136;2023-02-13T11:11:40;10.07;;;7.53;;
12567;SDS011;6349;50.904;6.136;2023-02-13T11:13:43;10.03;;;7.67;;
12567;SDS011;6349;50.904;6.136;2023-02-13T11:15:55;9.57;;;7.57;;
12567;SDS011;6349;50.904;6.136;2023-02-13T11:18:03;7.73;;;6.77;;
12567;SDS011;6349;50.904;6.136;2023-02-13T11:20:45;8.83;;;6.93;;
12567;SDS011;6349;50.904;6.136;2023-02-13T11:22:41;9.60;;;7.50;;
12567;SDS011;6349;50.904;6.136;2023-02-13T11:24:49;8.43;;;7.30;;
12567;SDS011;6349;50.904;6.136;2023-02-13T11:26:53;9.07;;;7.77;;
12567;SDS011;6349;50.904;6.136;2023-02-13T11:29:00;8.87;;;7.03;;
12567;SDS011;6349;50.904;6.136;2023-02-13T11:31:37;9.13;;;7.07;;
12567;SDS011;6349;50.904;6.136;2023-02-13T11:33:31;9.67;;;8.10;;
12567;SDS011;6349;50.904;6.136;2023-02-13T11:35:34;8.37;;;7.47;;
12567;SDS011;6349;50.904;6.136;2023-02-13T11:37:36;8.47;;;7.60;;
12567;SDS011;6349;50.904;6.136;2023-02-13T11:39:38;9.47;;;7.33;;
12567;SDS011;6349;50.904;6.136;2023-02-13T11:41:41;10.20;;;8.03;;
12567;SDS011;6349;50.904;6.136;2023-02-13T11:43:46;9.33;;;7.73;;
12567;SDS011;6349;50.904;6.136;2023-02-13T11:45:59;10.17;;;7.53;;
12567;SDS011;6349;50.904;6.136;2023-02-13T11:48:07;11.37;;;7.87;;
12567;SDS011;6349;50.904;6.136;2023-02-13T11:50:18;7.80;;;7.00;;
12567;SDS011;6349;50.904;6.136;2023-02-13T11:52:27;7.47;;;6.60;;
12567;SDS011;6349;50.904;6.136;2023-02-13T11:54:33;9.93;;;8.10;;
12567;SDS011;6349;50.904;6.136;2023-02-13T11:56:46;9.23;;;7.30;;
12567;SDS011;6349;50.904;6.136;2023-02-13T11:58:57;7.13;;;6.43;;
12567;SDS011;6349;50.904;6.136;2023-02-13T12:01:07;8.27;;;6.83;;
12567;SDS011;6349;50.904;6.136;2023-02-13T12:03:28;7.80;;;6.70;;
12567;SDS011;6349;50.904;6.136;2023-02-13T12:05:30;7.10;;;6.40;;
12567;SDS011;6349;50.904;6.136;2023-02-13T12:07:32;7.20;;;6.50;;
12567;SDS011;6349;50.904;6.136;2023-02-13T12:09:34;8.03;;;7.10;;
12567;SDS011;6349;50.904;6.136;2023-02-13T12:11:47;8.03;;;7.23;;
12567;SDS011;6349;50.904;6.136;2023-02-13T12:13:51;8.03;;;7.20;;
12567;SDS011;6349;50.904;6.136;2023-02-13T12:15:56;8.90;;;7.37;;
12567;SDS011;6349;50.904;6.136;2023-02-13T12:18:08;7.60;;;6.43;;
12567;SDS011;6349;50.904;6.136;2023-02-13T12:20:14;6.60;;;5.90;;
12567;SDS011;6349;50.904;6.136;2023-02-13T12:25:34;7.93;;;7.13;;
12567;SDS011;6349;50.904;6.136;2023-02-13T12:27:38;7.50;;;6.40;;
12567;SDS011;6349;50.904;6.136;2023-02-13T12:30:12;8.43;;;6.63;;
12567;SDS011;6349;50.904;6.136;2023-02-13T12:40:59;7.77;;;6.73;;
12567;SDS011;6349;50.904;6.136;2023-02-13T12:43:08;8.33;;;6.30;;
12567;SDS011;6349;50.904;6.136;2023-02-13T12:45:42;6.60;;;5.50;;
12567;SDS011;6349;50.904;6.136;2023-02-13T12:53:09;8.43;;;6.20;;
12567;SDS011;6349;50.904;6.136;2023-02-13T12:55:26;7.47;;;6.17;;
12567;SDS011;6349;50.904;6.136;2023-02-13T12:57:54;8.00;;;6.80;;
12567;SDS011;6349;50.904;6.136;2023-02-13T13:02:50;7.13;;;6.43;;
12567;SDS011;6349;50.904;6.136;2023-02-13T13:05:23;7.27;;;6.30;;
12567;SDS011;6349;50.904;6.136;2023-02-13T13:15:01;7.27;;;6.57;;
12567;SDS011;6349;50.904;6.136;2023-02-13T13:22:38;7.27;;;6.57;;
12567;SDS011;6349;50.904;6.136;2023-02-13T13:24:49;8.77;;;6.40;;
12567;SDS011;6349;50.904;6.136;2023-02-13T13:26:58;7.17;;;6.17;;
12567;SDS011;6349;50.904;6.136;2023-02-13T13:29:04;7.17;;;5.40;;
12567;SDS011;6349;50.904;6.136;2023-02-13T13:31:13;6.43;;;5.40;;
12567;SDS011;6349;50.904;6.136;2023-02-13T13:33:20;7.20;;;5.87;;
12567;SDS011;6349;50.904;6.136;2023-02-13T13:35:23;7.37;;;5.30;;
12567;SDS011;6349;50.904;6.136;2023-02-13T13:37:34;7.37;;;5.60;;
12567;SDS011;6349;50.904;6.136;2023-02-13T13:39:45;5.73;;;5.17;;
12567;SDS011;6349;50.904;6.136;2023-02-13T13:42:05;6.27;;;5.67;;
12567;SDS011;6349;50.904;6.136;2023-02-13T13:44:33;6.80;;;5.23;;
12567;SDS011;6349;50.904;6.136;2023-02-13T13:49:27;6.07;;;5.17;;
12567;SDS011;6349;50.904;6.136;2023-02-13T13:51:49;7.87;;;5.30;;
12567;SDS011;6349;50.904;6.136;2023-02-13T13:56:18;7.60;;;5.17;;
12567;SDS011;6349;50.904;6.136;2023-02-13T13:58:22;6.17;;;5.30;;
12567;SDS011;6349;50.904;6.136;2023-02-13T14:00:31;7.23;;;5.20;;